createdAt,value
2023-12-15T00:00:25.791Z,19.20
2023-12-15T00:02:52.480Z,17.20
2023-12-15T00:05:19.132Z,16.83
2023-12-15T00:07:45.695Z,15.83
2023-12-15T00:10:13.378Z,17.43
2023-12-15T00:12:39.982Z,17.47
2023-12-15T00:15:06.897Z,17.23
2023-12-15T00:17:33.838Z,14.23
2023-12-15T00:20:00.794Z,15.17
2023-12-15T00:22:27.375Z,16.87
2023-12-15T00:24:53.934Z,16.60
2023-12-15T00:27:20.834Z,14.50
2023-12-15T00:29:47.413Z,17.67
2023-12-15T00:32:13.993Z,15.57
2023-12-15T00:34:40.617Z,16.97
2023-12-15T00:37:07.194Z,18.17
2023-12-15T00:39:36.664Z,16.57
2023-12-15T00:42:03.396Z,15.80
2023-12-15T00:44:30.053Z,15.17
2023-12-15T00:46:56.811Z,15.83
2023-12-15T00:49:24.750Z,15.33
2023-12-15T00:51:51.385Z,15.00
2023-12-15T00:54:17.931Z,15.00
2023-12-15T00:56:44.539Z,16.87
2023-12-15T00:59:11.137Z,16.37
2023-12-15T01:01:37.699Z,16.70
2023-12-15T01:04:04.386Z,14.33
2023-12-15T01:06:32.026Z,16.20
2023-12-15T01:08:58.903Z,14.27
2023-12-15T01:11:25.512Z,16.17
2023-12-15T01:13:52.120Z,17.13
2023-12-15T01:16:18.713Z,15.90
2023-12-15T01:18:45.341Z,19.10
2023-12-15T01:21:12.068Z,16.77
2023-12-15T01:23:39.088Z,15.23
2023-12-15T01:26:06.080Z,17.87
2023-12-15T01:28:32.704Z,16.73
2023-12-15T01:31:02.649Z,15.23
2023-12-15T01:33:29.712Z,16.07
2023-12-15T01:35:56.668Z,14.53
2023-12-15T01:38:23.644Z,17.03
2023-12-15T01:40:50.854Z,15.70
2023-12-15T01:43:17.768Z,16.33
2023-12-15T01:45:44.304Z,16.47
2023-12-15T01:48:11.705Z,17.87
2023-12-15T01:50:39.366Z,16.97
2023-12-15T01:53:05.921Z,17.57
2023-12-15T01:55:32.494Z,18.40
2023-12-15T01:57:59.489Z,16.80
2023-12-15T02:00:26.412Z,15.20
2023-12-15T02:02:53.030Z,18.07
2023-12-15T02:05:23.940Z,18.53
2023-12-15T02:07:50.611Z,17.33
2023-12-15T02:10:17.268Z,18.27
2023-12-15T02:12:43.844Z,16.50
2023-12-15T02:15:11.540Z,15.73
2023-12-15T02:17:38.876Z,19.03
2023-12-15T02:20:06.328Z,17.67
2023-12-15T02:22:32.930Z,15.53
2023-12-15T02:24:59.557Z,17.33
2023-12-15T02:27:26.206Z,15.57
2023-12-15T02:29:53.137Z,16.63
2023-12-15T02:32:19.925Z,14.93
2023-12-15T02:34:46.680Z,17.07
2023-12-15T02:37:13.274Z,17.27
2023-12-15T02:39:40.062Z,14.63
2023-12-15T02:42:06.894Z,16.13
2023-12-15T02:44:33.796Z,13.47
2023-12-15T02:47:00.336Z,16.23
2023-12-15T02:49:26.901Z,15.60
2023-12-15T02:51:53.443Z,15.90
2023-12-15T02:54:20.160Z,15.53
2023-12-15T02:56:46.811Z,14.00
2023-12-15T02:59:13.351Z,18.13
2023-12-15T03:01:40.262Z,16.03
2023-12-15T03:04:06.820Z,12.30
2023-12-15T03:06:33.387Z,15.67
2023-12-15T03:08:59.917Z,18.27
2023-12-15T03:11:26.542Z,16.23
2023-12-15T03:13:53.218Z,14.27
2023-12-15T03:16:22.636Z,17.27
2023-12-15T03:18:49.239Z,16.63
2023-12-15T03:21:15.777Z,14.73
2023-12-15T03:23:42.371Z,17.33
2023-12-15T03:26:08.979Z,16.40
2023-12-15T03:28:35.617Z,16.50
2023-12-15T03:31:02.227Z,16.63
2023-12-15T03:33:33.856Z,13.37
2023-12-15T03:36:00.467Z,16.27
2023-12-15T03:38:27.021Z,16.97
2023-12-15T03:40:53.717Z,17.03
2023-12-15T03:43:20.309Z,17.67
2023-12-15T03:45:47.324Z,17.60
2023-12-15T03:48:13.962Z,15.90
2023-12-15T03:50:40.820Z,18.10
2023-12-15T03:53:07.415Z,16.83
2023-12-15T03:55:34.049Z,15.50
2023-12-15T03:58:00.600Z,17.13
2023-12-15T04:00:28.419Z,18.60
2023-12-15T04:02:55.025Z,19.10
2023-12-15T04:05:22.182Z,19.30
2023-12-15T04:07:48.831Z,18.93
2023-12-15T04:10:15.436Z,18.40
2023-12-15T04:12:42.025Z,22.07
2023-12-15T04:15:09.915Z,17.43
2023-12-15T04:17:37.102Z,16.77
2023-12-15T04:20:04.837Z,14.37
2023-12-15T04:22:31.552Z,19.50
2023-12-15T04:24:58.696Z,20.10
2023-12-15T04:27:25.264Z,19.07
2023-12-15T04:29:51.890Z,17.73
2023-12-15T04:32:18.594Z,18.90
2023-12-15T04:34:45.187Z,16.93
2023-12-15T04:37:11.733Z,16.60
2023-12-15T04:39:38.286Z,18.53
2023-12-15T04:42:04.973Z,20.80
2023-12-15T04:44:31.603Z,18.93
2023-12-15T04:46:58.197Z,18.77
2023-12-15T04:49:24.728Z,17.97
2023-12-15T04:51:51.296Z,19.73
2023-12-15T04:54:18.044Z,20.10
2023-12-15T04:56:46.335Z,23.37
2023-12-15T04:59:13.521Z,21.27
2023-12-15T05:01:40.253Z,21.60
2023-12-15T05:04:06.793Z,17.93
2023-12-15T05:06:33.411Z,20.17
2023-12-15T05:09:00.056Z,20.97
2023-12-15T05:11:27.615Z,19.50
2023-12-15T05:13:54.377Z,21.13
2023-12-15T05:16:22.529Z,20.90
2023-12-15T05:18:49.466Z,19.10
2023-12-15T05:21:16.134Z,20.07
2023-12-15T05:23:42.766Z,21.40
2023-12-15T05:26:09.450Z,19.63
2023-12-15T05:28:36.115Z,20.03
2023-12-15T05:31:02.698Z,22.07
2023-12-15T05:33:29.547Z,19.73
2023-12-15T05:35:56.259Z,21.20
2023-12-15T05:38:22.916Z,21.20
2023-12-15T05:40:49.502Z,21.60
2023-12-15T05:43:16.070Z,20.80
2023-12-15T05:45:42.669Z,21.53
2023-12-15T05:48:09.667Z,21.13
2023-12-15T05:50:37.308Z,20.90
2023-12-15T05:53:04.306Z,21.83
2023-12-15T05:55:31.592Z,20.30
2023-12-15T05:57:58.162Z,21.30
2023-12-15T06:00:24.741Z,21.20
2023-12-15T06:02:51.373Z,22.90
2023-12-15T06:05:18.145Z,23.23
2023-12-15T06:07:44.829Z,23.80
2023-12-15T06:10:11.967Z,23.17
2023-12-15T06:12:38.766Z,19.27
2023-12-15T06:15:07.219Z,19.10
2023-12-15T06:17:33.942Z,21.43
2023-12-15T06:20:00.876Z,22.00
2023-12-15T06:22:27.500Z,21.63
2023-12-15T06:24:54.044Z,20.97
2023-12-15T06:27:20.754Z,20.63
2023-12-15T06:29:47.365Z,21.83
2023-12-15T06:32:15.885Z,23.77
2023-12-15T06:34:43.562Z,22.30
2023-12-15T06:37:10.248Z,20.63
2023-12-15T06:39:36.886Z,25.00
2023-12-15T06:42:04.261Z,23.27
2023-12-15T06:44:31.393Z,22.37
2023-12-15T06:46:58.453Z,21.37
2023-12-15T06:49:32.135Z,21.90
2023-12-15T06:51:59.618Z,21.67
2023-12-15T06:54:26.185Z,22.43
2023-12-15T06:56:52.824Z,22.90
2023-12-15T06:59:19.507Z,22.43
2023-12-15T07:01:46.084Z,20.00
2023-12-15T07:04:13.082Z,22.83
2023-12-15T07:06:39.820Z,20.83
2023-12-15T07:09:06.577Z,20.90
2023-12-15T07:11:33.582Z,22.83
2023-12-15T07:14:00.303Z,20.73
2023-12-15T07:16:27.005Z,21.40
2023-12-15T07:18:53.781Z,20.03
2023-12-15T07:21:20.399Z,22.30
2023-12-15T07:23:46.967Z,19.83
2023-12-15T07:26:13.575Z,19.77
2023-12-15T07:28:40.494Z,21.80
2023-12-15T07:31:09.082Z,18.87
2023-12-15T07:33:37.327Z,17.47
2023-12-15T07:36:04.121Z,20.93
2023-12-15T07:38:30.715Z,20.10
2023-12-15T07:40:58.526Z,19.57
2023-12-15T07:43:25.054Z,19.67
2023-12-15T07:45:51.617Z,19.60
2023-12-15T07:48:18.322Z,23.10
2023-12-15T07:50:45.149Z,20.67
2023-12-15T07:53:12.732Z,17.90
2023-12-15T07:55:39.403Z,17.93
2023-12-15T07:58:09.357Z,18.17
2023-12-15T08:00:35.982Z,18.10
2023-12-15T08:03:02.609Z,15.83
2023-12-15T08:05:29.229Z,19.73
2023-12-15T08:07:55.887Z,18.97
2023-12-15T08:10:26.708Z,17.20
2023-12-15T08:12:53.360Z,16.57
2023-12-15T08:15:20.515Z,15.83
2023-12-15T08:17:47.598Z,18.00
2023-12-15T08:20:14.430Z,18.73
2023-12-15T08:22:41.097Z,17.63
2023-12-15T08:25:07.892Z,16.53
2023-12-15T08:27:36.108Z,14.80
2023-12-15T08:30:02.907Z,17.07
2023-12-15T08:32:29.523Z,16.63
2023-12-15T08:34:56.195Z,16.97
2023-12-15T08:37:22.897Z,14.00
2023-12-15T08:39:49.437Z,15.40
2023-12-15T08:42:16.037Z,14.23
2023-12-15T08:44:45.503Z,12.73
2023-12-15T08:47:12.344Z,14.77
2023-12-15T08:49:38.962Z,16.27
2023-12-15T08:52:05.849Z,16.30
2023-12-15T08:54:32.540Z,15.53
2023-12-15T08:56:59.272Z,16.90
2023-12-15T08:59:25.877Z,16.07
2023-12-15T09:01:52.434Z,17.27
2023-12-15T09:04:20.066Z,14.90
2023-12-15T09:06:48.944Z,15.70
2023-12-15T09:09:17.210Z,14.73
2023-12-15T09:11:44.231Z,16.13
2023-12-15T09:14:11.123Z,15.20
2023-12-15T09:16:37.737Z,15.30
2023-12-15T09:19:04.437Z,17.07
2023-12-15T09:21:31.082Z,14.13
2023-12-15T09:23:58.475Z,21.70
2023-12-15T09:26:26.033Z,17.00
2023-12-15T09:28:52.841Z,14.17
2023-12-15T09:31:19.423Z,16.20
2023-12-15T09:33:46.259Z,15.70
2023-12-15T09:36:13.019Z,14.50
2023-12-15T09:38:39.844Z,19.63
2023-12-15T09:41:06.848Z,23.63
2023-12-15T09:43:33.467Z,17.67
2023-12-15T09:46:00.266Z,16.60
2023-12-15T09:48:29.095Z,17.67
2023-12-15T09:50:56.514Z,14.93
2023-12-15T09:53:23.348Z,14.13
2023-12-15T09:55:52.083Z,16.93
2023-12-15T09:58:19.022Z,19.43
2023-12-15T10:00:46.164Z,16.57
2023-12-15T10:03:14.644Z,16.67
2023-12-15T10:05:41.812Z,17.93
2023-12-15T10:08:08.511Z,19.03
2023-12-15T10:10:35.489Z,17.00
2023-12-15T10:13:02.497Z,20.70
2023-12-15T10:15:30.535Z,19.43
2023-12-15T10:17:58.226Z,21.97
2023-12-15T10:20:24.990Z,19.37
2023-12-15T10:23:04.899Z,45.33
2023-12-15T10:25:34.064Z,73.27
2023-12-15T10:28:03.206Z,39.23
2023-12-15T10:30:30.332Z,24.03
2023-12-15T10:33:00.705Z,27.63
2023-12-15T10:35:30.170Z,29.30
2023-12-15T10:37:57.250Z,40.07
2023-12-15T10:40:23.968Z,24.27
2023-12-15T10:42:51.921Z,22.77
2023-12-15T10:45:19.523Z,26.83
2023-12-15T10:47:46.553Z,24.40
2023-12-15T10:50:13.473Z,21.33
2023-12-15T10:52:40.511Z,22.23
2023-12-15T10:55:07.850Z,28.20
2023-12-15T10:57:34.603Z,22.10
2023-12-15T11:00:03.596Z,23.70
2023-12-15T11:02:32.813Z,22.10
2023-12-15T11:05:00.443Z,22.73
2023-12-15T11:07:28.450Z,24.07
2023-12-15T11:09:56.348Z,19.93
2023-12-15T11:12:28.595Z,21.40
2023-12-15T11:14:55.341Z,22.07
2023-12-15T11:17:22.578Z,18.87
2023-12-15T11:19:49.900Z,23.60
2023-12-15T11:22:16.521Z,20.30
2023-12-15T11:24:43.144Z,19.93
2023-12-15T11:27:11.725Z,21.43
2023-12-15T11:29:38.361Z,21.87
2023-12-15T11:32:24.713Z,23.02
2023-12-15T11:34:51.311Z,23.00
2023-12-15T11:37:18.589Z,23.83
2023-12-15T11:39:47.816Z,19.17
2023-12-15T11:42:15.597Z,22.60
2023-12-15T11:44:44.894Z,23.17
2023-12-15T11:47:12.538Z,21.10
2023-12-15T11:49:44.035Z,21.33
2023-12-15T11:52:14.067Z,20.50
2023-12-15T11:54:41.200Z,19.63
2023-12-15T11:57:07.790Z,20.40
2023-12-15T11:59:45.735Z,21.13
2023-12-15T12:02:18.456Z,22.20
2023-12-15T12:04:48.559Z,22.67
2023-12-15T12:07:15.320Z,19.97
2023-12-15T12:09:43.062Z,21.30
2023-12-15T12:12:09.761Z,20.23
2023-12-15T12:14:41.479Z,24.63
2023-12-15T12:17:08.735Z,20.37
2023-12-15T12:19:39.554Z,20.17
2023-12-15T12:22:09.573Z,18.83
2023-12-15T12:24:36.300Z,21.60
2023-12-15T12:27:02.929Z,19.53
2023-12-15T12:29:32.912Z,21.33
2023-12-15T12:31:59.894Z,26.40
2023-12-15T12:34:26.756Z,26.57
2023-12-15T12:36:53.500Z,22.67
2023-12-15T12:39:24.344Z,22.70
2023-12-15T12:41:51.078Z,19.20
2023-12-15T12:44:17.718Z,24.07
2023-12-15T12:46:44.356Z,23.37
2023-12-15T12:49:11.009Z,21.73
2023-12-15T12:51:37.606Z,25.50
2023-12-15T12:54:04.266Z,21.60
2023-12-15T12:56:31.060Z,21.93
2023-12-15T12:58:59.598Z,24.00
2023-12-15T13:01:29.813Z,23.73
2023-12-15T13:03:56.737Z,20.90
2023-12-15T13:06:23.844Z,22.50
2023-12-15T13:08:50.747Z,22.80
2023-12-15T13:11:17.451Z,21.33
2023-12-15T13:13:44.093Z,24.83
2023-12-15T13:16:12.143Z,19.40
2023-12-15T13:18:38.885Z,23.27
2023-12-15T13:21:05.659Z,20.63
2023-12-15T13:23:32.292Z,19.50
2023-12-15T13:25:58.920Z,20.43
2023-12-15T13:28:27.778Z,21.50
2023-12-15T13:30:56.482Z,21.20
2023-12-15T13:33:23.249Z,18.97
2023-12-15T13:35:50.207Z,19.90
2023-12-15T13:38:17.800Z,23.23
2023-12-15T13:40:44.681Z,21.27
2023-12-15T13:43:11.694Z,21.80
2023-12-15T13:45:45.423Z,23.37
2023-12-15T13:48:17.504Z,23.30
2023-12-15T13:50:44.192Z,21.90
2023-12-15T13:53:11.509Z,22.63
2023-12-15T13:55:38.877Z,19.97
2023-12-15T13:58:06.963Z,19.60
2023-12-15T14:00:33.833Z,20.87
2023-12-15T14:03:00.525Z,21.67
2023-12-15T14:05:27.253Z,20.20
2023-12-15T14:07:55.512Z,18.93
2023-12-15T14:10:24.206Z,18.47
2023-12-15T14:12:52.036Z,20.23
2023-12-15T14:15:19.010Z,19.07
2023-12-15T14:17:45.791Z,18.83
2023-12-15T14:20:13.777Z,17.50
2023-12-15T14:22:40.896Z,16.50
2023-12-15T14:25:07.955Z,18.30
2023-12-15T14:27:35.210Z,18.03
2023-12-15T14:30:02.006Z,18.70
2023-12-15T14:32:29.175Z,18.87
2023-12-15T14:34:56.911Z,18.20
2023-12-15T14:37:23.634Z,19.37
2023-12-15T14:39:50.382Z,20.27
2023-12-15T14:42:17.016Z,20.03
2023-12-15T14:44:43.655Z,34.40
2023-12-15T14:47:11.180Z,17.60
2023-12-15T14:49:37.882Z,18.93
2023-12-15T14:52:05.310Z,16.40
2023-12-15T14:54:34.603Z,16.93
2023-12-15T14:57:01.265Z,15.17
2023-12-15T14:59:27.913Z,17.93
2023-12-15T15:01:55.605Z,16.43
2023-12-15T15:04:22.748Z,13.57
2023-12-15T15:06:50.502Z,16.00
2023-12-15T15:09:19.369Z,15.20
2023-12-15T15:11:46.435Z,14.73
2023-12-15T15:14:13.143Z,20.33
2023-12-15T15:16:40.024Z,18.10
2023-12-15T15:19:07.314Z,13.77
2023-12-15T15:21:34.197Z,12.77
2023-12-15T15:24:00.860Z,14.70
2023-12-15T15:26:30.857Z,14.53
2023-12-15T15:28:58.318Z,14.60
2023-12-15T15:31:25.910Z,14.77
2023-12-15T15:33:55.106Z,15.77
2023-12-15T15:36:25.315Z,16.63
2023-12-15T15:38:52.947Z,18.70
2023-12-15T15:41:19.581Z,14.30
2023-12-15T15:43:47.191Z,14.47
2023-12-15T15:46:20.574Z,15.53
2023-12-15T15:48:48.487Z,14.27
2023-12-15T15:51:24.790Z,17.80
2023-12-15T15:53:51.731Z,15.80
2023-12-15T15:56:18.999Z,17.17
2023-12-15T15:58:45.674Z,14.83
2023-12-15T16:01:35.941Z,17.77
2023-12-15T16:04:09.353Z,16.83
2023-12-15T16:06:36.253Z,16.37
2023-12-15T16:09:03.070Z,18.43
2023-12-15T16:11:29.780Z,16.83
2023-12-15T16:14:02.204Z,18.70
2023-12-15T16:16:34.781Z,23.37
2023-12-15T16:19:01.836Z,22.17
2023-12-15T16:21:28.448Z,24.40
2023-12-15T16:23:55.065Z,25.90
2023-12-15T16:26:22.102Z,20.17
2023-12-15T16:28:48.704Z,22.07
2023-12-15T16:31:16.031Z,22.10
2023-12-15T16:33:42.868Z,22.70
2023-12-15T16:36:10.349Z,22.47
2023-12-15T16:38:36.934Z,26.87
2023-12-15T16:41:03.701Z,22.67
2023-12-15T16:43:32.729Z,21.97
2023-12-15T16:45:59.782Z,23.30
2023-12-15T16:48:26.516Z,23.10
2023-12-15T16:50:53.182Z,18.67
2023-12-15T16:53:19.753Z,25.23
2023-12-15T16:55:46.328Z,24.57
2023-12-15T16:58:12.995Z,23.23
2023-12-15T17:00:39.718Z,26.43
2023-12-15T17:03:06.438Z,23.90
2023-12-15T17:05:34.616Z,24.70
2023-12-15T17:08:01.612Z,19.90
2023-12-15T17:10:28.247Z,23.40
2023-12-15T17:12:55.063Z,23.37
2023-12-15T17:15:21.710Z,20.30
2023-12-15T17:17:54.767Z,22.27
2023-12-15T17:20:29.439Z,20.33
2023-12-15T17:22:57.013Z,20.23
2023-12-15T17:25:24.274Z,25.67
2023-12-15T17:27:51.402Z,23.20
2023-12-15T17:30:18.226Z,25.40
2023-12-15T17:32:44.865Z,23.97
2023-12-15T17:35:11.608Z,20.33
2023-12-15T17:37:38.507Z,24.38
2023-12-15T17:40:06.163Z,20.20
2023-12-15T17:42:32.799Z,24.03
2023-12-15T17:44:59.371Z,22.43
2023-12-15T17:47:26.009Z,21.60
2023-12-15T17:49:52.642Z,20.97
2023-12-15T17:52:19.627Z,21.43
2023-12-15T17:54:46.283Z,21.93
2023-12-15T17:57:12.957Z,23.20
2023-12-15T17:59:39.526Z,22.40
2023-12-15T18:02:06.660Z,28.70
2023-12-15T18:04:33.743Z,20.20
2023-12-15T18:07:00.743Z,20.93
2023-12-15T18:09:27.373Z,24.20
2023-12-15T18:11:54.092Z,21.80
2023-12-15T18:14:21.701Z,19.63
2023-12-15T18:16:48.421Z,18.57
2023-12-15T18:19:17.841Z,18.30
2023-12-15T18:21:44.484Z,22.00
2023-12-15T18:24:11.310Z,18.37
2023-12-15T18:26:38.001Z,21.53
2023-12-15T18:29:04.630Z,20.67
2023-12-15T18:31:31.341Z,18.93
2023-12-15T18:33:58.056Z,19.03
2023-12-15T18:36:25.162Z,19.60
2023-12-15T18:38:51.820Z,21.90
2023-12-15T18:41:18.421Z,19.70
2023-12-15T18:43:47.065Z,22.43
2023-12-15T18:46:17.805Z,22.20
2023-12-15T18:48:44.638Z,21.57
2023-12-15T18:51:20.974Z,20.20
2023-12-15T18:53:48.308Z,23.53
2023-12-15T18:56:18.790Z,24.00
2023-12-15T18:58:47.790Z,20.90
2023-12-15T19:01:14.711Z,21.37
2023-12-15T19:03:42.280Z,23.10
2023-12-15T19:06:13.039Z,24.23
2023-12-15T19:08:39.620Z,27.57
2023-12-15T19:11:06.231Z,25.43
2023-12-15T19:13:32.943Z,25.30
2023-12-15T19:16:00.432Z,23.93
2023-12-15T19:18:27.086Z,24.40
2023-12-15T19:20:53.700Z,26.87
2023-12-15T19:23:20.327Z,21.87
2023-12-15T19:25:46.911Z,24.17
2023-12-15T19:28:15.317Z,24.87
2023-12-15T19:30:42.051Z,24.70
2023-12-15T19:33:09.353Z,24.87
2023-12-15T19:35:36.134Z,24.43
2023-12-15T19:38:02.791Z,28.93
2023-12-15T19:40:30.068Z,24.67
2023-12-15T19:42:58.736Z,27.23
2023-12-15T19:45:25.412Z,27.13
2023-12-15T19:47:52.019Z,23.00
2023-12-15T19:50:18.798Z,24.27
2023-12-15T19:52:45.456Z,23.47
2023-12-15T19:55:14.624Z,27.87
2023-12-15T19:57:41.553Z,22.53
2023-12-15T20:00:12.255Z,24.67
2023-12-15T20:02:39.414Z,28.20
2023-12-15T20:05:08.270Z,24.00
2023-12-15T20:07:35.148Z,26.40
2023-12-15T20:10:02.007Z,28.10
2023-12-15T20:12:29.275Z,23.97
2023-12-15T20:14:55.899Z,29.50
2023-12-15T20:17:22.926Z,24.87
2023-12-15T20:19:49.718Z,25.27
2023-12-15T20:22:16.475Z,24.40
2023-12-15T20:24:43.288Z,31.50
2023-12-15T20:27:12.839Z,27.03
2023-12-15T20:29:40.664Z,31.50
2023-12-15T20:32:07.403Z,27.73
2023-12-15T20:34:34.761Z,26.53
2023-12-15T20:37:01.534Z,21.83
2023-12-15T20:39:28.884Z,24.43
2023-12-15T20:41:55.531Z,27.53
2023-12-15T20:44:22.168Z,29.17
2023-12-15T20:46:49.611Z,27.27
2023-12-15T20:49:16.409Z,27.37
2023-12-15T20:51:43.287Z,25.00
2023-12-15T20:54:09.966Z,24.03
2023-12-15T20:56:36.637Z,28.70
2023-12-15T20:59:03.245Z,25.10
2023-12-15T21:01:30.011Z,25.80
2023-12-15T21:03:58.101Z,29.53
2023-12-15T21:06:25.404Z,20.50
2023-12-15T21:08:55.138Z,23.63
2023-12-15T21:11:22.047Z,24.63
2023-12-15T21:13:48.821Z,26.43
2023-12-15T21:16:26.079Z,22.17
2023-12-15T21:18:53.230Z,24.67
2023-12-15T21:21:31.310Z,19.20
2023-12-15T21:23:58.394Z,21.13
2023-12-15T21:26:25.038Z,24.60
2023-12-15T21:28:51.812Z,21.03
2023-12-15T21:31:19.072Z,23.07
2023-12-15T21:33:45.783Z,20.70
2023-12-15T21:36:12.768Z,22.13
2023-12-15T21:38:39.457Z,19.87
2023-12-15T21:41:06.343Z,20.77
2023-12-15T21:43:33.029Z,19.90
2023-12-15T21:45:59.833Z,20.43
2023-12-15T21:48:26.937Z,22.80
2023-12-15T21:50:53.658Z,21.03
2023-12-15T21:53:20.264Z,16.27
2023-12-15T21:55:46.870Z,22.67
2023-12-15T21:58:13.596Z,20.03
2023-12-15T22:00:40.328Z,20.07
2023-12-15T22:03:06.970Z,20.77
2023-12-15T22:05:33.659Z,19.57
2023-12-15T22:08:00.293Z,16.90
2023-12-15T22:10:27.339Z,22.50
2023-12-15T22:12:53.989Z,18.30
2023-12-15T22:15:20.635Z,17.30
2023-12-15T22:17:47.344Z,19.63
2023-12-15T22:20:14.025Z,21.30
2023-12-15T22:22:41.972Z,19.63
2023-12-15T22:25:09.251Z,20.10
2023-12-15T22:27:36.193Z,16.83
2023-12-15T22:30:03.462Z,19.10
2023-12-15T22:32:30.389Z,20.27
2023-12-15T22:34:57.725Z,19.70
2023-12-15T22:37:24.440Z,22.37
2023-12-15T22:39:51.124Z,23.20
2023-12-15T22:42:17.815Z,16.50
2023-12-15T22:44:44.418Z,23.20
2023-12-15T22:47:10.968Z,18.90
2023-12-15T22:49:37.821Z,18.97
2023-12-15T22:52:04.713Z,19.17
2023-12-15T22:54:31.733Z,19.73
2023-12-15T22:56:59.049Z,19.73
2023-12-15T22:59:27.676Z,18.17
2023-12-15T23:01:54.532Z,18.33
2023-12-15T23:04:21.262Z,21.40
2023-12-15T23:06:48.091Z,19.97
2023-12-15T23:09:14.897Z,25.80
2023-12-15T23:11:41.493Z,18.70
2023-12-15T23:14:08.212Z,21.73
2023-12-15T23:16:35.633Z,18.07
2023-12-15T23:19:02.443Z,21.50
2023-12-15T23:21:29.858Z,22.13
2023-12-15T23:23:56.732Z,19.93
2023-12-15T23:26:23.523Z,17.83
2023-12-15T23:28:50.451Z,23.87
2023-12-15T23:31:17.257Z,20.33
2023-12-15T23:33:44.883Z,21.73
2023-12-15T23:36:14.921Z,21.57
2023-12-15T23:38:42.233Z,23.43
2023-12-15T23:41:09.783Z,18.40
2023-12-15T23:43:37.519Z,23.90
2023-12-15T23:46:04.476Z,23.80
2023-12-15T23:48:31.312Z,22.33
2023-12-15T23:50:57.981Z,21.93
2023-12-15T23:53:24.652Z,24.87
2023-12-15T23:55:51.200Z,22.73
2023-12-15T23:58:17.856Z,26.33
